sensor_id;sensor_type;location;lat;lon;timestamp;P1;durP1;ratioP1;P2;durP2;ratioP2
63396;SDS011;49532;45.068;38.928;2022-07-29T04:12:04;31.35;;;11.20;;
63396;SDS011;49532;45.068;38.928;2022-07-29T04:17:07;22.08;;;10.63;;
63396;SDS011;49532;45.068;38.928;2022-07-29T04:22:08;19.85;;;10.45;;
63396;SDS011;49532;45.068;38.928;2022-07-29T04:27:09;21.63;;;10.03;;
63396;SDS011;49532;45.068;38.928;2022-07-29T04:32:10;17.83;;;10.23;;
63396;SDS011;49532;45.068;38.928;2022-07-29T04:37:11;14.47;;;8.90;;
63396;SDS011;49532;45.068;38.928;2022-07-29T04:42:12;19.67;;;10.20;;
63396;SDS011;49532;45.068;38.928;2022-07-29T04:47:13;17.38;;;9.48;;
63396;SDS011;49532;45.068;38.928;2022-07-29T04:52:14;11.20;;;8.40;;
63396;SDS011;49532;45.068;38.928;2022-07-29T04:57:15;18.13;;;9.10;;
63396;SDS011;49532;45.068;38.928;2022-07-29T05:02:16;20.63;;;9.57;;
63396;SDS011;49532;45.068;38.928;2022-07-29T05:07:18;13.68;;;7.60;;
63396;SDS011;49532;45.068;38.928;2022-07-29T05:12:19;11.35;;;7.38;;
63396;SDS011;49532;45.068;38.928;2022-07-29T05:22:21;13.07;;;5.95;;
63396;SDS011;49532;45.068;38.928;2022-07-29T05:27:22;19.63;;;6.25;;
63396;SDS011;49532;45.068;38.928;2022-07-29T05:32:23;12.65;;;6.15;;
63396;SDS011;49532;45.068;38.928;2022-07-29T05:37:24;15.50;;;6.45;;
63396;SDS011;49532;45.068;38.928;2022-07-29T05:42:25;11.10;;;4.90;;
63396;SDS011;49532;45.068;38.928;2022-07-29T05:47:27;17.88;;;7.35;;
63396;SDS011;49532;45.068;38.928;2022-07-29T05:52:28;15.85;;;6.90;;
63396;SDS011;49532;45.068;38.928;2022-07-29T05:57:29;12.10;;;5.70;;
63396;SDS011;49532;45.068;38.928;2022-07-29T06:02:30;18.45;;;6.40;;
63396;SDS011;49532;45.068;38.928;2022-07-29T06:07:31;18.23;;;6.20;;
63396;SDS011;49532;45.068;38.928;2022-07-29T06:12:33;18.25;;;5.40;;
63396;SDS011;49532;45.068;38.928;2022-07-29T06:17:34;24.35;;;6.78;;
63396;SDS011;49532;45.068;38.928;2022-07-29T06:22:35;12.13;;;5.47;;
63396;SDS011;49532;45.068;38.928;2022-07-29T06:27:36;13.60;;;6.15;;
63396;SDS011;49532;45.068;38.928;2022-07-29T06:32:37;17.02;;;5.78;;
63396;SDS011;49532;45.068;38.928;2022-07-29T06:37:38;13.10;;;5.28;;
63396;SDS011;49532;45.068;38.928;2022-07-29T06:42:42;15.00;;;5.30;;
63396;SDS011;49532;45.068;38.928;2022-07-29T06:47:44;13.57;;;6.60;;
63396;SDS011;49532;45.068;38.928;2022-07-29T06:52:45;8.70;;;4.75;;
63396;SDS011;49532;45.068;38.928;2022-07-29T06:57:46;20.70;;;4.78;;
63396;SDS011;49532;45.068;38.928;2022-07-29T07:02:47;9.73;;;4.82;;
63396;SDS011;49532;45.068;38.928;2022-07-29T07:07:48;15.70;;;5.00;;
63396;SDS011;49532;45.068;38.928;2022-07-29T07:12:49;9.30;;;3.78;;
63396;SDS011;49532;45.068;38.928;2022-07-29T07:17:50;10.60;;;3.83;;
63396;SDS011;49532;45.068;38.928;2022-07-29T07:22:51;12.63;;;4.05;;
63396;SDS011;49532;45.068;38.928;2022-07-29T07:27:52;13.95;;;3.72;;
63396;SDS011;49532;45.068;38.928;2022-07-29T07:32:53;7.07;;;3.85;;
63396;SDS011;49532;45.068;38.928;2022-07-29T07:37:55;14.23;;;3.95;;
63396;SDS011;49532;45.068;38.928;2022-07-29T07:42:57;15.90;;;4.38;;
63396;SDS011;49532;45.068;38.928;2022-07-29T07:47:58;14.60;;;3.40;;
63396;SDS011;49532;45.068;38.928;2022-07-29T07:52:59;13.25;;;3.30;;
63396;SDS011;49532;45.068;38.928;2022-07-29T07:58:02;12.95;;;3.55;;
63396;SDS011;49532;45.068;38.928;2022-07-29T08:03:03;9.65;;;3.38;;
63396;SDS011;49532;45.068;38.928;2022-07-29T08:08:05;7.18;;;3.08;;
63396;SDS011;49532;45.068;38.928;2022-07-29T08:13:06;7.85;;;3.42;;
63396;SDS011;49532;45.068;38.928;2022-07-29T08:18:09;6.82;;;2.25;;
63396;SDS011;49532;45.068;38.928;2022-07-29T08:23:10;19.65;;;3.30;;
63396;SDS011;49532;45.068;38.928;2022-07-29T08:28:11;27.02;;;4.13;;
63396;SDS011;49532;45.068;38.928;2022-07-29T08:33:12;16.52;;;3.17;;
63396;SDS011;49532;45.068;38.928;2022-07-29T08:38:13;9.00;;;2.97;;
63396;SDS011;49532;45.068;38.928;2022-07-29T08:43:14;10.20;;;3.10;;
63396;SDS011;49532;45.068;38.928;2022-07-29T08:48:16;11.05;;;3.05;;
63396;SDS011;49532;45.068;38.928;2022-07-29T08:53:21;9.18;;;3.08;;
63396;SDS011;49532;45.068;38.928;2022-07-29T08:58:26;8.80;;;2.88;;
63396;SDS011;49532;45.068;38.928;2022-07-29T09:03:33;7.20;;;2.50;;
63396;SDS011;49532;45.068;38.928;2022-07-29T09:08:36;11.95;;;3.00;;
63396;SDS011;49532;45.068;38.928;2022-07-29T09:13:37;7.25;;;2.80;;
63396;SDS011;49532;45.068;38.928;2022-07-29T09:18:39;15.50;;;2.95;;
63396;SDS011;49532;45.068;38.928;2022-07-29T09:23:58;9.35;;;2.38;;
63396;SDS011;49532;45.068;38.928;2022-07-29T09:29:00;6.32;;;2.90;;
63396;SDS011;49532;45.068;38.928;2022-07-29T09:34:09;7.60;;;2.90;;
63396;SDS011;49532;45.068;38.928;2022-07-29T09:39:12;9.88;;;2.83;;
63396;SDS011;49532;45.068;38.928;2022-07-29T09:44:15;11.05;;;2.83;;
63396;SDS011;49532;45.068;38.928;2022-07-29T09:49:16;8.98;;;2.60;;
63396;SDS011;49532;45.068;38.928;2022-07-29T09:54:21;4.88;;;2.60;;
63396;SDS011;49532;45.068;38.928;2022-07-29T09:59:23;7.38;;;3.10;;
63396;SDS011;49532;45.068;38.928;2022-07-29T10:04:44;8.85;;;3.03;;
63396;SDS011;49532;45.068;38.928;2022-07-29T10:09:49;5.93;;;3.10;;
63396;SDS011;49532;45.068;38.928;2022-07-29T10:14:54;11.38;;;3.63;;
63396;SDS011;49532;45.068;38.928;2022-07-29T10:19:56;13.77;;;4.28;;
63396;SDS011;49532;45.068;38.928;2022-07-29T10:24:57;7.78;;;3.38;;
63396;SDS011;49532;45.068;38.928;2022-07-29T10:29:58;11.60;;;2.67;;
63396;SDS011;49532;45.068;38.928;2022-07-29T10:35:15;7.45;;;2.90;;
63396;SDS011;49532;45.068;38.928;2022-07-29T10:46:02;7.32;;;2.33;;
63396;SDS011;49532;45.068;38.928;2022-07-29T10:51:04;4.50;;;2.35;;
63396;SDS011;49532;45.068;38.928;2022-07-29T10:56:05;10.15;;;2.40;;
63396;SDS011;49532;45.068;38.928;2022-07-29T11:01:28;10.73;;;2.67;;
63396;SDS011;49532;45.068;38.928;2022-07-29T11:11:59;7.30;;;2.45;;
63396;SDS011;49532;45.068;38.928;2022-07-29T11:17:01;7.20;;;2.55;;
63396;SDS011;49532;45.068;38.928;2022-07-29T11:22:03;6.20;;;2.53;;
63396;SDS011;49532;45.068;38.928;2022-07-29T11:27:12;8.32;;;2.60;;
63396;SDS011;49532;45.068;38.928;2022-07-29T11:32:15;3.45;;;2.33;;
63396;SDS011;49532;45.068;38.928;2022-07-29T11:37:20;8.40;;;2.00;;
63396;SDS011;49532;45.068;38.928;2022-07-29T11:47:23;6.82;;;2.47;;
63396;SDS011;49532;45.068;38.928;2022-07-29T11:52:38;12.48;;;2.80;;
63396;SDS011;49532;45.068;38.928;2022-07-29T11:57:47;6.55;;;2.65;;
63396;SDS011;49532;45.068;38.928;2022-07-29T12:02:50;8.25;;;2.50;;
63396;SDS011;49532;45.068;38.928;2022-07-29T12:07:51;4.22;;;2.65;;
63396;SDS011;49532;45.068;38.928;2022-07-29T12:12:52;5.63;;;2.80;;
63396;SDS011;49532;45.068;38.928;2022-07-29T12:17:53;4.93;;;2.97;;
63396;SDS011;49532;45.068;38.928;2022-07-29T12:22:54;4.70;;;2.55;;
63396;SDS011;49532;45.068;38.928;2022-07-29T12:28:00;4.40;;;2.90;;
63396;SDS011;49532;45.068;38.928;2022-07-29T12:33:02;5.90;;;2.55;;
63396;SDS011;49532;45.068;38.928;2022-07-29T12:38:14;7.20;;;2.72;;
63396;SDS011;49532;45.068;38.928;2022-07-29T12:43:16;7.00;;;2.72;;
63396;SDS011;49532;45.068;38.928;2022-07-29T12:48:33;3.47;;;2.38;;
63396;SDS011;49532;45.068;38.928;2022-07-29T12:53:36;3.90;;;2.25;;
63396;SDS011;49532;45.068;38.928;2022-07-29T12:58:39;4.78;;;2.50;;
63396;SDS011;49532;45.068;38.928;2022-07-29T13:03:42;3.20;;;2.30;;
63396;SDS011;49532;45.068;38.928;2022-07-29T13:14:32;12.30;;;2.80;;
63396;SDS011;49532;45.068;38.928;2022-07-29T13:19:38;5.43;;;2.80;;
63396;SDS011;49532;45.068;38.928;2022-07-29T13:24:50;24.17;;;7.68;;
63396;SDS011;49532;45.068;38.928;2022-07-29T13:29:54;17.05;;;5.60;;
63396;SDS011;49532;45.068;38.928;2022-07-29T13:35:08;9.25;;;2.47;;
63396;SDS011;49532;45.068;38.928;2022-07-29T13:45:11;10.68;;;3.08;;
63396;SDS011;49532;45.068;38.928;2022-07-29T13:50:13;7.18;;;2.58;;
63396;SDS011;49532;45.068;38.928;2022-07-29T13:55:16;9.77;;;2.65;;
63396;SDS011;49532;45.068;38.928;2022-07-29T14:00:17;8.35;;;2.53;;
63396;SDS011;49532;45.068;38.928;2022-07-29T14:05:19;6.28;;;2.88;;
63396;SDS011;49532;45.068;38.928;2022-07-29T14:10:20;10.55;;;2.65;;
63396;SDS011;49532;45.068;38.928;2022-07-29T14:15:21;19.15;;;4.88;;
63396;SDS011;49532;45.068;38.928;2022-07-29T14:20:23;9.13;;;4.28;;
63396;SDS011;49532;45.068;38.928;2022-07-29T14:25:24;6.85;;;2.67;;
63396;SDS011;49532;45.068;38.928;2022-07-29T14:30:26;11.07;;;2.33;;
63396;SDS011;49532;45.068;38.928;2022-07-29T14:35:27;4.18;;;2.20;;
63396;SDS011;49532;45.068;38.928;2022-07-29T14:40:28;7.95;;;2.42;;
63396;SDS011;49532;45.068;38.928;2022-07-29T14:45:29;5.00;;;1.92;;
63396;SDS011;49532;45.068;38.928;2022-07-29T14:50:32;6.45;;;1.98;;
63396;SDS011;49532;45.068;38.928;2022-07-29T14:55:33;6.63;;;2.35;;
63396;SDS011;49532;45.068;38.928;2022-07-29T15:00:34;3.75;;;1.90;;
63396;SDS011;49532;45.068;38.928;2022-07-29T15:05:37;7.80;;;1.98;;
63396;SDS011;49532;45.068;38.928;2022-07-29T15:10:38;20.08;;;2.80;;
63396;SDS011;49532;45.068;38.928;2022-07-29T15:15:39;3.20;;;1.60;;
63396;SDS011;49532;45.068;38.928;2022-07-29T15:20:41;6.15;;;1.98;;
63396;SDS011;49532;45.068;38.928;2022-07-29T15:25:42;6.68;;;2.63;;
63396;SDS011;49532;45.068;38.928;2022-07-29T15:30:43;7.05;;;2.47;;
63396;SDS011;49532;45.068;38.928;2022-07-29T15:35:44;7.13;;;2.65;;
63396;SDS011;49532;45.068;38.928;2022-07-29T15:40:45;7.10;;;2.20;;
63396;SDS011;49532;45.068;38.928;2022-07-29T15:45:46;12.57;;;2.80;;
63396;SDS011;49532;45.068;38.928;2022-07-29T15:51:06;7.40;;;2.80;;
63396;SDS011;49532;45.068;38.928;2022-07-29T15:56:07;7.70;;;3.00;;
63396;SDS011;49532;45.068;38.928;2022-07-29T16:01:08;5.90;;;3.25;;
63396;SDS011;49532;45.068;38.928;2022-07-29T16:06:09;9.70;;;3.22;;
63396;SDS011;49532;45.068;38.928;2022-07-29T16:11:10;10.30;;;3.15;;
63396;SDS011;49532;45.068;38.928;2022-07-29T16:16:11;12.15;;;3.70;;
63396;SDS011;49532;45.068;38.928;2022-07-29T16:21:13;12.35;;;3.90;;
63396;SDS011;49532;45.068;38.928;2022-07-29T16:26:14;15.77;;;3.30;;
63396;SDS011;49532;45.068;38.928;2022-07-29T16:31:16;7.55;;;3.50;;
63396;SDS011;49532;45.068;38.928;2022-07-29T16:36:18;6.22;;;3.15;;
63396;SDS011;49532;45.068;38.928;2022-07-29T16:41:20;29.02;;;4.60;;
63396;SDS011;49532;45.068;38.928;2022-07-29T16:46:21;93.53;;;10.13;;
63396;SDS011;49532;45.068;38.928;2022-07-29T16:56:23;47.45;;;7.88;;
63396;SDS011;49532;45.068;38.928;2022-07-29T17:01:25;58.72;;;7.72;;
63396;SDS011;49532;45.068;38.928;2022-07-29T17:11:28;29.42;;;7.13;;
63396;SDS011;49532;45.068;38.928;2022-07-29T17:16:29;41.58;;;7.40;;
63396;SDS011;49532;45.068;38.928;2022-07-29T17:21:30;40.83;;;8.52;;
63396;SDS011;49532;45.068;38.928;2022-07-29T17:26:31;36.55;;;6.72;;
63396;SDS011;49532;45.068;38.928;2022-07-29T17:36:33;36.10;;;7.50;;
63396;SDS011;49532;45.068;38.928;2022-07-29T17:41:36;31.52;;;8.35;;
63396;SDS011;49532;45.068;38.928;2022-07-29T17:46:37;50.17;;;8.15;;
63396;SDS011;49532;45.068;38.928;2022-07-29T17:51:39;42.10;;;6.32;;
63396;SDS011;49532;45.068;38.928;2022-07-29T17:56:41;20.13;;;6.00;;
63396;SDS011;49532;45.068;38.928;2022-07-29T18:01:42;20.92;;;5.35;;
63396;SDS011;49532;45.068;38.928;2022-07-29T18:06:43;23.08;;;5.50;;
63396;SDS011;49532;45.068;38.928;2022-07-29T18:11:44;18.00;;;4.70;;
63396;SDS011;49532;45.068;38.928;2022-07-29T18:16:46;31.77;;;5.55;;
63396;SDS011;49532;45.068;38.928;2022-07-29T18:21:47;19.67;;;5.40;;
63396;SDS011;49532;45.068;38.928;2022-07-29T18:26:49;17.85;;;4.72;;
63396;SDS011;49532;45.068;38.928;2022-07-29T18:31:51;18.33;;;5.55;;
63396;SDS011;49532;45.068;38.928;2022-07-29T18:36:53;18.58;;;4.43;;
63396;SDS011;49532;45.068;38.928;2022-07-29T18:41:54;12.30;;;4.38;;
63396;SDS011;49532;45.068;38.928;2022-07-29T18:46:55;17.42;;;4.47;;
63396;SDS011;49532;45.068;38.928;2022-07-29T18:51:56;23.88;;;5.38;;
63396;SDS011;49532;45.068;38.928;2022-07-29T18:56:58;23.25;;;6.25;;
63396;SDS011;49532;45.068;38.928;2022-07-29T19:02:01;25.10;;;5.70;;
63396;SDS011;49532;45.068;38.928;2022-07-29T19:07:02;33.03;;;7.47;;
63396;SDS011;49532;45.068;38.928;2022-07-29T19:12:03;27.50;;;6.80;;
